ADDS METAR Data

Data at: 1213 UTC 24 Mar 2017

METAR for:EGLF (Farnborough Arpt, --, UK)
Text:EGLF 241150Z 08015KT 6000 BKN012 09/06 Q1029
Temperature: 9.0°C ( 48°F)
Dewpoint: 6.0°C ( 43°F) [RH = 81%]
Pressure (altimeter):30.38 inches Hg (1029.0 mb)
Winds:from the E (80 degrees) at 17 MPH (15 knots; 7.7 m/s)
Visibility: 4 sm ( 6 km)
Ceiling:1200 feet AGL
Clouds: broken clouds at 1200 feet AGL

TAF for:EGLF (Farnborough Arpt, --, UK) issued at 1056 UTC 24 Mar 2017
Text:TAF EGLF 241056Z 2412/2421 07015KT 6000 BKN012
Forecast period:1200 to 2100 UTC 24 March 2017
Forecast type:FROM: standard forecast or significant change
Winds:from the ENE (70 degrees) at 17 MPH (15 knots; 7.7 m/s)
Visibility: 4 sm ( 6 km)
Ceiling:1200 feet AGL
Clouds: broken clouds at 1200 feet AGL
Text:BECMG 2412/2415 9999 FEW020
Forecast period:1200 to 2100 UTC 24 March 2017
Forecast type:BECOMING: Conditions expected to become as follows by 1500 UTC 24 March 2017
Winds:from the ENE (70 degrees) at 17 MPH (15 knots; 7.7 m/s)
Visibility:6 or more sm (10+ km)
Ceiling:at least 12,000 feet AGL
Clouds: few clouds at 2000 feet AGL

METAR for:EGUB (Benson(RAF), --, UK)
Text:EGUB 241150Z 05012KT 9999 FEW019 BKN020 10/05 Q1029 WHT BECMG FEW020 BLU
Temperature: 10.0°C ( 50°F)
Dewpoint: 5.0°C ( 41°F) [RH = 71%]
Pressure (altimeter):30.38 inches Hg (1029.0 mb)
Winds:from the NE (50 degrees) at 14 MPH (12 knots; 6.2 m/s)
Visibility:6 or more sm (10+ km)
Ceiling:2000 feet AGL
Clouds: few clouds at 1900 feet AGL, broken clouds at 2000 feet AGL

TAF for:EGUB (Benson(RAF), --, UK) issued at 1025 UTC 24 Mar 2017
Text:TAF EGUB 241025Z 2412/2419 05012KT 9999 BKN016
Forecast period:1200 to 1300 UTC 24 March 2017
Forecast type:FROM: standard forecast or significant change
Winds:from the NE (50 degrees) at 14 MPH (12 knots; 6.2 m/s)
Visibility:6 or more sm (10+ km)
Ceiling:1600 feet AGL
Clouds: broken clouds at 1600 feet AGL
Text:BECMG 2413/2415 FEW024
Forecast period:1300 to 1900 UTC 24 March 2017
Forecast type:BECOMING: Conditions expected to become as follows by 1500 UTC 24 March 2017
Winds:from the NE (50 degrees) at 14 MPH (12 knots; 6.2 m/s)
Visibility:6 or more sm (10+ km)
Ceiling:at least 12,000 feet AGL
Clouds: few clouds at 2400 feet AGL
Text:PROB30
Forecast period:1800 to 1900 UTC 24 March 2017
Forecast type:TEMPORARY: The following changes expected for less than half the time period
Ceiling:at least 12,000 feet AGL
Clouds: scattered clouds at 1400 feet AGL

METAR for:EGVO (Odiham(RAF), --, UK)
Text:EGVO 241150Z 06009KT 7000 HZ OVC014 09/06 Q1028 GRN BECMG 8000 BKN015 WHT
Temperature: 9.0°C ( 48°F)
Dewpoint: 6.0°C ( 43°F) [RH = 81%]
Pressure (altimeter):30.35 inches Hg (1028.0 mb)
Winds:from the ENE (60 degrees) at 10 MPH (9 knots; 4.6 m/s)
Visibility: 4 sm ( 7 km)
Ceiling:1400 feet AGL
Clouds: overcast cloud deck at 1400 feet AGL
Weather:HZ (haze)

TAF for:EGVO (Odiham(RAF), --, UK) issued at 1056 UTC 24 Mar 2017
Text:TAF EGVO 241056Z 2412/2424 06012KT 7000 HZ BKN014
Forecast period:1200 UTC 24 March 2017 to 0000 UTC 25 March 2017
Forecast type:FROM: standard forecast or significant change
Winds:from the ENE (60 degrees) at 14 MPH (12 knots; 6.2 m/s)
Visibility: 4 sm ( 7 km)
Ceiling:1400 feet AGL
Clouds: broken clouds at 1400 feet AGL
Weather:HZ (haze)
Text:BECMG 2412/2413 9999 NSW BKN015
Forecast period:1200 to 1300 UTC 24 March 2017
Forecast type:BECOMING: Conditions expected to become as follows by 1300 UTC 24 March 2017
Winds:from the ENE (60 degrees) at 14 MPH (12 knots; 6.2 m/s)
Visibility:6 or more sm (10+ km)
Ceiling:1500 feet AGL
Clouds: broken clouds at 1500 feet AGL
Weather:NSW (no significant weather)
Text:BECMG 2413/2415 SCT025
Forecast period:1300 UTC 24 March 2017 to 0000 UTC 25 March 2017
Forecast type:BECOMING: Conditions expected to become as follows by 1500 UTC 24 March 2017
Winds:from the ENE (60 degrees) at 14 MPH (12 knots; 6.2 m/s)
Visibility:6 or more sm (10+ km)
Ceiling:at least 12,000 feet AGL
Clouds: scattered clouds at 2500 feet AGL
Weather:NSW (no significant weather)

METAR for:EGTK (Oxford Arpt, --, UK)
Text:EGTK 241150Z 06017KT 9999 BKN021 09/06 Q1030
Temperature: 9.0°C ( 48°F)
Dewpoint: 6.0°C ( 43°F) [RH = 81%]
Pressure (altimeter):30.41 inches Hg (1030.0 mb)
Winds:from the ENE (60 degrees) at 20 MPH (17 knots; 8.7 m/s)
Visibility:6 or more sm (10+ km)
Ceiling:2100 feet AGL
Clouds: broken clouds at 2100 feet AGL

TAF for:EGTK (Oxford Arpt, --, UK) issued at 1059 UTC 24 Mar 2017
Text:TAF EGTK 241059Z 2412/2421 05010KT 9999 SCT030
Forecast period:1200 to 2100 UTC 24 March 2017
Forecast type:FROM: standard forecast or significant change
Winds:from the NE (50 degrees) at 12 MPH (10 knots; 5.1 m/s)
Visibility:6 or more sm (10+ km)
Ceiling:at least 12,000 feet AGL
Clouds: scattered clouds at 3000 feet AGL
Text:PROB30
Forecast period:1200 to 2100 UTC 24 March 2017
Forecast type:TEMPORARY: The following changes expected for less than half the time period
Visibility: 6 sm ( 9 km)
Clouds:missing

METAR for:EGHH (Bournemouth Intl, --, UK)
Text:EGHH 241150Z 06012KT 5000 HZ BKN017 BKN021 11/07 Q1027
Temperature: 11.0°C ( 52°F)
Dewpoint: 7.0°C ( 45°F) [RH = 76%]
Pressure (altimeter):30.32 inches Hg (1027.0 mb)
Winds:from the ENE (60 degrees) at 14 MPH (12 knots; 6.2 m/s)
Visibility: 3 sm ( 5 km)
Ceiling:1700 feet AGL
Clouds: broken clouds at 1700 feet AGL, broken clouds at 2100 feet AGL
Weather:HZ (haze)

TAF for:EGHH (Bournemouth Intl, --, UK) issued at 1059 UTC 24 Mar 2017
Text:TAF EGHH 241059Z 2412/2421 05008KT 9999 SCT025
Forecast period:1200 to 2100 UTC 24 March 2017
Forecast type:FROM: standard forecast or significant change
Winds:from the NE (50 degrees) at 9 MPH (8 knots; 4.1 m/s)
Visibility:6 or more sm (10+ km)
Ceiling:at least 12,000 feet AGL
Clouds: scattered clouds at 2500 feet AGL
Text:PROB30
Forecast period:1200 to 1400 UTC 24 March 2017
Forecast type:TEMPORARY: The following changes expected for less than half the time period
Visibility: 5 sm ( 8 km)
Clouds:missing
Weather:-RA (light rain)

METAR for:
Text:No data found

TAF for:
Text:No data found